sensor_id;sensor_type;location;lat;lon;timestamp;pressure;altitude;pressure_sealevel;temperature;humidity
31044;BME280;17710;52.520;13.352;2023-05-12T00:00:46;101398.22;;;22.12;30.73
31044;BME280;17710;52.520;13.352;2023-05-12T00:03:13;101391.56;;;21.79;31.17
31044;BME280;17710;52.520;13.352;2023-05-12T00:05:39;101398.16;;;21.75;31.10
31044;BME280;17710;52.520;13.352;2023-05-12T00:08:07;101398.22;;;21.86;30.76
31044;BME280;17710;52.520;13.352;2023-05-12T00:10:33;101394.63;;;21.62;31.09
31044;BME280;17710;52.520;13.352;2023-05-12T00:13:00;101397.09;;;21.78;31.18
31044;BME280;17710;52.520;13.352;2023-05-12T00:15:26;101391.56;;;21.79;30.88
31044;BME280;17710;52.520;13.352;2023-05-12T00:17:52;101391.50;;;21.68;31.25
31044;BME280;17710;52.520;13.352;2023-05-12T00:20:19;101393.44;;;21.79;30.87
31044;BME280;17710;52.520;13.352;2023-05-12T00:22:45;101394.19;;;21.68;30.91
31044;BME280;17710;52.520;13.352;2023-05-12T00:25:13;101391.63;;;21.54;31.01
31044;BME280;17710;52.520;13.352;2023-05-12T00:27:39;101395.59;;;21.61;30.97
31044;BME280;17710;52.520;13.352;2023-05-12T00:30:07;101397.56;;;21.59;31.30
31044;BME280;17710;52.520;13.352;2023-05-12T00:32:34;101392.34;;;21.69;31.23
31044;BME280;17710;52.520;13.352;2023-05-12T00:35:00;101390.97;;;21.63;31.23
31044;BME280;17710;52.520;13.352;2023-05-12T00:37:27;101391.28;;;21.71;31.11
31044;BME280;17710;52.520;13.352;2023-05-12T00:39:53;101388.69;;;21.82;30.72
31044;BME280;17710;52.520;13.352;2023-05-12T00:42:21;101393.41;;;21.66;30.85
31044;BME280;17710;52.520;13.352;2023-05-12T00:44:47;101393.41;;;21.66;30.88
31044;BME280;17710;52.520;13.352;2023-05-12T00:47:14;101400.31;;;21.70;30.65
31044;BME280;17710;52.520;13.352;2023-05-12T00:49:43;101398.94;;;21.52;30.89
31044;BME280;17710;52.520;13.352;2023-05-12T00:52:09;101396.91;;;21.43;31.11
31044;BME280;17710;52.520;13.352;2023-05-12T00:54:37;101402.19;;;21.32;31.16
31044;BME280;17710;52.520;13.352;2023-05-12T00:57:05;101410.66;;;21.26;31.10
31044;BME280;17710;52.520;13.352;2023-05-12T00:59:32;101404.97;;;21.18;31.18
31044;BME280;17710;52.520;13.352;2023-05-12T01:01:59;101398.81;;;21.16;31.79
31044;BME280;17710;52.520;13.352;2023-05-12T01:04:25;101408.25;;;21.08;31.70
31044;BME280;17710;52.520;13.352;2023-05-12T01:06:55;101405.66;;;21.07;31.95
31044;BME280;17710;52.520;13.352;2023-05-12T01:09:23;101408.22;;;20.96;31.93
31044;BME280;17710;52.520;13.352;2023-05-12T01:11:50;101409.38;;;21.19;31.53
31044;BME280;17710;52.520;13.352;2023-05-12T01:14:16;101404.81;;;21.06;31.71
31044;BME280;17710;52.520;13.352;2023-05-12T01:16:47;101409.63;;;21.01;31.72
31044;BME280;17710;52.520;13.352;2023-05-12T01:19:28;101410.19;;;21.06;31.44
31044;BME280;17710;52.520;13.352;2023-05-12T01:21:58;101412.13;;;21.04;31.68
31044;BME280;17710;52.520;13.352;2023-05-12T01:24:26;101415.97;;;21.00;31.72
31044;BME280;17710;52.520;13.352;2023-05-12T01:26:55;101412.13;;;21.04;31.47
31044;BME280;17710;52.520;13.352;2023-05-12T01:29:22;101413.84;;;21.05;31.50
31044;BME280;17710;52.520;13.352;2023-05-12T01:31:49;101422.53;;;21.09;31.40
31044;BME280;17710;52.520;13.352;2023-05-12T01:34:16;101425.22;;;20.96;31.80
31044;BME280;17710;52.520;13.352;2023-05-12T01:36:42;101420.13;;;20.79;32.15
31044;BME280;17710;52.520;13.352;2023-05-12T01:39:09;101418.59;;;20.75;32.01
31044;BME280;17710;52.520;13.352;2023-05-12T01:41:35;101419.41;;;21.02;31.65
31044;BME280;17710;52.520;13.352;2023-05-12T01:44:03;101419.38;;;20.90;32.10
31044;BME280;17710;52.520;13.352;2023-05-12T01:46:30;101421.34;;;21.00;31.60
31044;BME280;17710;52.520;13.352;2023-05-12T01:48:56;101422.59;;;20.82;31.96
31044;BME280;17710;52.520;13.352;2023-05-12T01:51:23;101422.41;;;20.98;31.85
31044;BME280;17710;52.520;13.352;2023-05-12T01:53:49;101414.63;;;20.81;31.97
31044;BME280;17710;52.520;13.352;2023-05-12T01:56:15;101423.34;;;20.84;31.99
31044;BME280;17710;52.520;13.352;2023-05-12T01:58:42;101425.81;;;20.87;31.72
31044;BME280;17710;52.520;13.352;2023-05-12T02:01:09;101422.41;;;20.85;32.14
31044;BME280;17710;52.520;13.352;2023-05-12T02:03:36;101426.22;;;20.81;32.12
31044;BME280;17710;52.520;13.352;2023-05-12T02:06:03;101424.97;;;20.87;32.14
31044;BME280;17710;52.520;13.352;2023-05-12T02:08:29;101422.03;;;20.77;32.02
31044;BME280;17710;52.520;13.352;2023-05-12T02:11:03;101428.16;;;20.66;32.30
31044;BME280;17710;52.520;13.352;2023-05-12T02:13:30;101435.44;;;20.64;32.41
31044;BME280;17710;52.520;13.352;2023-05-12T02:15:56;101428.34;;;20.63;32.38
31044;BME280;17710;52.520;13.352;2023-05-12T02:18:24;101442.06;;;20.59;32.68
31044;BME280;17710;52.520;13.352;2023-05-12T02:20:50;101445.13;;;20.67;32.13
31044;BME280;17710;52.520;13.352;2023-05-12T02:23:16;101447.44;;;20.59;32.20
31044;BME280;17710;52.520;13.352;2023-05-12T02:25:43;101441.25;;;20.71;32.32
31044;BME280;17710;52.520;13.352;2023-05-12T02:28:09;101436.06;;;20.68;32.36
31044;BME280;17710;52.520;13.352;2023-05-12T02:30:36;101451.63;;;20.63;32.49
31044;BME280;17710;52.520;13.352;2023-05-12T02:33:02;101442.97;;;20.72;32.35
31044;BME280;17710;52.520;13.352;2023-05-12T02:35:30;101450.44;;;20.54;32.80
31044;BME280;17710;52.520;13.352;2023-05-12T02:37:57;101448.09;;;20.62;32.53
31044;BME280;17710;52.520;13.352;2023-05-12T02:40:23;101453.41;;;20.50;32.71
31044;BME280;17710;52.520;13.352;2023-05-12T02:42:50;101443.63;;;20.49;32.43
31044;BME280;17710;52.520;13.352;2023-05-12T02:45:16;101451.34;;;20.41;32.76
31044;BME280;17710;52.520;13.352;2023-05-12T02:47:43;101447.19;;;20.49;32.48
31044;BME280;17710;52.520;13.352;2023-05-12T02:50:10;101446.94;;;20.40;32.82
31044;BME280;17710;52.520;13.352;2023-05-12T02:52:38;101443.00;;;20.31;32.72
31044;BME280;17710;52.520;13.352;2023-05-12T02:55:05;101446.66;;;20.16;33.29
31044;BME280;17710;52.520;13.352;2023-05-12T02:57:31;101442.91;;;20.18;33.18
31044;BME280;17710;52.520;13.352;2023-05-12T02:59:58;101449.16;;;20.19;33.23
31044;BME280;17710;52.520;13.352;2023-05-12T03:02:24;101445.22;;;20.10;33.39
31044;BME280;17710;52.520;13.352;2023-05-12T03:04:51;101441.59;;;20.11;33.41
31044;BME280;17710;52.520;13.352;2023-05-12T03:07:17;101435.28;;;19.98;33.48
31044;BME280;17710;52.520;13.352;2023-05-12T03:09:45;101445.63;;;19.90;33.89
31044;BME280;17710;52.520;13.352;2023-05-12T03:12:11;101447.75;;;19.85;34.04
31044;BME280;17710;52.520;13.352;2023-05-12T03:14:40;101447.38;;;19.91;33.67
31044;BME280;17710;52.520;13.352;2023-05-12T03:17:06;101447.44;;;19.89;33.51
31044;BME280;17710;52.520;13.352;2023-05-12T03:19:33;101446.88;;;19.84;33.81
31044;BME280;17710;52.520;13.352;2023-05-12T03:22:00;101450.91;;;19.92;33.62
31044;BME280;17710;52.520;13.352;2023-05-12T03:24:27;101450.66;;;19.82;33.85
31044;BME280;17710;52.520;13.352;2023-05-12T03:26:55;101454.75;;;19.73;33.92
31044;BME280;17710;52.520;13.352;2023-05-12T03:29:21;101449.69;;;19.69;33.99
31044;BME280;17710;52.520;13.352;2023-05-12T03:31:48;101450.34;;;19.72;34.03
31044;BME280;17710;52.520;13.352;2023-05-12T03:34:15;101453.13;;;19.85;33.41
31044;BME280;17710;52.520;13.352;2023-05-12T03:36:41;101453.88;;;19.87;33.65
31044;BME280;17710;52.520;13.352;2023-05-12T03:39:07;101456.19;;;19.93;33.74
31044;BME280;17710;52.520;13.352;2023-05-12T03:41:34;101454.53;;;19.90;33.46
31044;BME280;17710;52.520;13.352;2023-05-12T03:44:02;101462.72;;;19.75;34.18
31044;BME280;17710;52.520;13.352;2023-05-12T03:46:29;101459.03;;;19.76;33.83
31044;BME280;17710;52.520;13.352;2023-05-12T03:48:56;101460.00;;;19.89;33.66
31044;BME280;17710;52.520;13.352;2023-05-12T03:51:23;101456.97;;;19.81;33.77
31044;BME280;17710;52.520;13.352;2023-05-12T03:53:49;101464.13;;;19.95;33.70
31044;BME280;17710;52.520;13.352;2023-05-12T03:56:16;101462.88;;;19.72;34.07
31044;BME280;17710;52.520;13.352;2023-05-12T03:58:43;101467.94;;;19.76;33.77
31044;BME280;17710;52.520;13.352;2023-05-12T04:01:12;101460.50;;;19.81;33.74
31044;BME280;17710;52.520;13.352;2023-05-12T04:03:38;101467.88;;;19.92;33.57
31044;BME280;17710;52.520;13.352;2023-05-12T04:06:05;101464.06;;;19.82;33.55
31044;BME280;17710;52.520;13.352;2023-05-12T04:08:32;101468.34;;;19.84;33.30
31044;BME280;17710;52.520;13.352;2023-05-12T04:11:00;101462.59;;;19.76;33.87
31044;BME280;17710;52.520;13.352;2023-05-12T04:13:28;101467.22;;;19.74;33.81
31044;BME280;17710;52.520;13.352;2023-05-12T04:15:56;101466.34;;;19.88;33.75
31044;BME280;17710;52.520;13.352;2023-05-12T04:18:24;101473.63;;;19.86;33.56
31044;BME280;17710;52.520;13.352;2023-05-12T04:20:51;101477.72;;;19.92;33.67
31044;BME280;17710;52.520;13.352;2023-05-12T04:23:18;101478.78;;;19.89;33.20
31044;BME280;17710;52.520;13.352;2023-05-12T04:25:44;101473.06;;;19.81;33.40
31044;BME280;17710;52.520;13.352;2023-05-12T04:28:11;101478.59;;;19.92;33.55
31044;BME280;17710;52.520;13.352;2023-05-12T04:30:38;101473.00;;;20.09;33.07
31044;BME280;17710;52.520;13.352;2023-05-12T04:33:04;101480.03;;;19.83;33.29
31044;BME280;17710;52.520;13.352;2023-05-12T04:35:32;101479.94;;;19.99;33.10
31044;BME280;17710;52.520;13.352;2023-05-12T04:37:59;101478.28;;;20.25;32.74
31044;BME280;17710;52.520;13.352;2023-05-12T04:40:26;101476.66;;;20.37;32.64
31044;BME280;17710;52.520;13.352;2023-05-12T04:42:53;101478.69;;;20.33;32.63
31044;BME280;17710;52.520;13.352;2023-05-12T04:45:19;101481.28;;;20.35;32.60
31044;BME280;17710;52.520;13.352;2023-05-12T04:47:45;101485.00;;;20.18;32.64
31044;BME280;17710;52.520;13.352;2023-05-12T04:50:12;101492.88;;;20.07;32.60
31044;BME280;17710;52.520;13.352;2023-05-12T04:52:40;101491.78;;;20.09;32.94
31044;BME280;17710;52.520;13.352;2023-05-12T04:55:08;101490.44;;;20.16;33.02
31044;BME280;17710;52.520;13.352;2023-05-12T04:57:34;101487.88;;;20.15;32.80
31044;BME280;17710;52.520;13.352;2023-05-12T05:00:01;101497.16;;;20.09;33.19
31044;BME280;17710;52.520;13.352;2023-05-12T05:02:29;101494.00;;;20.17;32.63
31044;BME280;17710;52.520;13.352;2023-05-12T05:04:56;101501.38;;;20.27;32.76
31044;BME280;17710;52.520;13.352;2023-05-12T05:07:22;101506.47;;;20.18;32.95
31044;BME280;17710;52.520;13.352;2023-05-12T05:09:50;101506.38;;;20.34;32.91
31044;BME280;17710;52.520;13.352;2023-05-12T05:12:18;101512.84;;;20.58;32.67
31044;BME280;17710;52.520;13.352;2023-05-12T05:14:44;101505.03;;;20.41;32.52
31044;BME280;17710;52.520;13.352;2023-05-12T05:17:10;101512.09;;;20.42;32.32
31044;BME280;17710;52.520;13.352;2023-05-12T05:19:37;101511.59;;;20.49;32.40
31044;BME280;17710;52.520;13.352;2023-05-12T05:22:04;101511.38;;;20.66;32.36
31044;BME280;17710;52.520;13.352;2023-05-12T05:24:30;101518.69;;;20.91;31.93
31044;BME280;17710;52.520;13.352;2023-05-12T05:26:58;101522.16;;;20.93;31.71
31044;BME280;17710;52.520;13.352;2023-05-12T05:29:25;101527.09;;;20.99;31.57
31044;BME280;17710;52.520;13.352;2023-05-12T05:31:52;101515.69;;;21.23;31.49
31044;BME280;17710;52.520;13.352;2023-05-12T05:34:19;101513.53;;;21.28;31.42
31044;BME280;17710;52.520;13.352;2023-05-12T05:36:45;101522.75;;;21.63;30.74
31044;BME280;17710;52.520;13.352;2023-05-12T05:39:12;101514.34;;;21.80;30.58
31044;BME280;17710;52.520;13.352;2023-05-12T05:41:38;101521.44;;;21.94;30.30
31044;BME280;17710;52.520;13.352;2023-05-12T05:44:06;101512.44;;;22.08;30.13
31044;BME280;17710;52.520;13.352;2023-05-12T05:46:32;101529.84;;;22.27;29.78
31044;BME280;17710;52.520;13.352;2023-05-12T05:48:59;101524.25;;;22.31;29.81
31044;BME280;17710;52.520;13.352;2023-05-12T05:51:25;101530.81;;;22.26;29.93
31044;BME280;17710;52.520;13.352;2023-05-12T05:53:51;101529.94;;;22.26;29.71
31044;BME280;17710;52.520;13.352;2023-05-12T05:56:18;101532.00;;;22.35;29.49
31044;BME280;17710;52.520;13.352;2023-05-12T05:58:44;101526.41;;;22.38;29.32
31044;BME280;17710;52.520;13.352;2023-05-12T06:01:12;101530.25;;;22.34;29.69
31044;BME280;17710;52.520;13.352;2023-05-12T06:03:39;101531.25;;;22.82;29.36
31044;BME280;17710;52.520;13.352;2023-05-12T06:06:06;101530.13;;;22.85;29.17
31044;BME280;17710;52.520;13.352;2023-05-12T06:08:32;101535.66;;;23.07;28.67
31044;BME280;17710;52.520;13.352;2023-05-12T06:10:58;101541.22;;;23.17;28.49
31044;BME280;17710;52.520;13.352;2023-05-12T06:13:25;101540.69;;;23.47;28.19
31044;BME280;17710;52.520;13.352;2023-05-12T06:15:51;101535.03;;;23.38;28.07
31044;BME280;17710;52.520;13.352;2023-05-12T06:18:21;101534.09;;;23.51;27.66
31044;BME280;17710;52.520;13.352;2023-05-12T06:20:47;101536.59;;;23.54;27.59
31044;BME280;17710;52.520;13.352;2023-05-12T06:23:13;101544.19;;;23.49;27.61
31044;BME280;17710;52.520;13.352;2023-05-12T06:25:40;101542.03;;;23.76;27.42
31044;BME280;17710;52.520;13.352;2023-05-12T06:28:06;101544.19;;;23.60;27.68
31044;BME280;17710;52.520;13.352;2023-05-12T06:30:33;101542.81;;;24.00;27.36
31044;BME280;17710;52.520;13.352;2023-05-12T06:32:59;101547.13;;;24.25;27.17
31044;BME280;17710;52.520;13.352;2023-05-12T06:35:27;101547.88;;;24.38;27.17
31044;BME280;17710;52.520;13.352;2023-05-12T06:37:54;101549.66;;;24.04;27.04
31044;BME280;17710;52.520;13.352;2023-05-12T06:40:20;101549.09;;;24.23;26.93
31044;BME280;17710;52.520;13.352;2023-05-12T06:42:47;101554.00;;;24.51;26.90
31044;BME280;17710;52.520;13.352;2023-05-12T06:45:14;101556.06;;;24.59;26.45
31044;BME280;17710;52.520;13.352;2023-05-12T06:47:40;101551.41;;;24.50;26.64
31044;BME280;17710;52.520;13.352;2023-05-12T06:50:07;101552.28;;;24.50;26.47
31044;BME280;17710;52.520;13.352;2023-05-12T06:52:35;101549.44;;;24.63;26.37
31044;BME280;17710;52.520;13.352;2023-05-12T06:55:03;101549.88;;;24.90;26.16
31044;BME280;17710;52.520;13.352;2023-05-12T06:57:29;101548.28;;;24.77;26.73
31044;BME280;17710;52.520;13.352;2023-05-12T06:59:56;101550.00;;;25.00;26.52
31044;BME280;17710;52.520;13.352;2023-05-12T07:02:22;101547.25;;;25.11;26.25
31044;BME280;17710;52.520;13.352;2023-05-12T07:04:51;101551.28;;;25.17;25.89
31044;BME280;17710;52.520;13.352;2023-05-12T07:07:18;101555.09;;;25.46;26.05
31044;BME280;17710;52.520;13.352;2023-05-12T07:09:45;101560.69;;;25.65;25.68
31044;BME280;17710;52.520;13.352;2023-05-12T07:12:12;101555.94;;;26.39;25.09
31044;BME280;17710;52.520;13.352;2023-05-12T07:14:39;101557.00;;;26.98;24.54
31044;BME280;17710;52.520;13.352;2023-05-12T07:17:05;101545.75;;;27.50;23.52
31044;BME280;17710;52.520;13.352;2023-05-12T07:19:31;101560.72;;;27.64;22.86
31044;BME280;17710;52.520;13.352;2023-05-12T07:21:59;101557.13;;;27.44;23.32
31044;BME280;17710;52.520;13.352;2023-05-12T07:24:26;101558.69;;;26.98;23.71
31044;BME280;17710;52.520;13.352;2023-05-12T07:26:54;101561.00;;;27.03;23.87
31044;BME280;17710;52.520;13.352;2023-05-12T07:29:20;101553.63;;;26.75;23.97
31044;BME280;17710;52.520;13.352;2023-05-12T07:31:47;101564.13;;;26.49;24.57
31044;BME280;17710;52.520;13.352;2023-05-12T07:34:14;101556.91;;;26.69;24.13
31044;BME280;17710;52.520;13.352;2023-05-12T07:36:40;101564.34;;;26.86;23.52
31044;BME280;17710;52.520;13.352;2023-05-12T07:39:06;101556.91;;;26.69;23.98
31044;BME280;17710;52.520;13.352;2023-05-12T07:41:33;101560.19;;;26.63;24.07
31044;BME280;17710;52.520;13.352;2023-05-12T07:44:01;101554.03;;;26.51;23.96
31044;BME280;17710;52.520;13.352;2023-05-12T07:46:27;101556.13;;;26.47;23.98
31044;BME280;17710;52.520;13.352;2023-05-12T07:48:54;101553.00;;;26.52;23.92
31044;BME280;17710;52.520;13.352;2023-05-12T07:51:20;101555.63;;;26.73;24.08
31044;BME280;17710;52.520;13.352;2023-05-12T07:53:47;101559.28;;;26.22;24.12
31044;BME280;17710;52.520;13.352;2023-05-12T07:56:13;101560.75;;;26.56;23.84
31044;BME280;17710;52.520;13.352;2023-05-12T07:58:40;101556.47;;;26.64;24.14
31044;BME280;17710;52.520;13.352;2023-05-12T08:01:08;101553.13;;;27.00;23.56
31044;BME280;17710;52.520;13.352;2023-05-12T08:03:34;101557.16;;;26.96;22.87
31044;BME280;17710;52.520;13.352;2023-05-12T08:06:01;101555.19;;;27.17;22.95
31044;BME280;17710;52.520;13.352;2023-05-12T08:08:30;101568.44;;;27.01;22.58
31044;BME280;17710;52.520;13.352;2023-05-12T08:10:56;101554.00;;;26.91;22.50
31044;BME280;17710;52.520;13.352;2023-05-12T08:13:23;101561.75;;;26.65;22.60
31044;BME280;17710;52.520;13.352;2023-05-12T08:15:50;101560.44;;;26.59;22.52
31044;BME280;17710;52.520;13.352;2023-05-12T08:18:18;101560.78;;;26.76;22.55
31044;BME280;17710;52.520;13.352;2023-05-12T08:20:45;101567.03;;;26.57;22.61
31044;BME280;17710;52.520;13.352;2023-05-12T08:23:11;101557.72;;;26.59;21.95
31044;BME280;17710;52.520;13.352;2023-05-12T08:25:38;101557.72;;;26.90;21.72
31044;BME280;17710;52.520;13.352;2023-05-12T08:28:05;101554.59;;;26.54;21.98
31044;BME280;17710;52.520;13.352;2023-05-12T08:30:31;101556.00;;;26.89;21.45
31044;BME280;17710;52.520;13.352;2023-05-12T08:32:58;101552.84;;;26.93;21.26
31044;BME280;17710;52.520;13.352;2023-05-12T08:35:26;101549.44;;;27.20;21.55
31044;BME280;17710;52.520;13.352;2023-05-12T08:37:53;101556.00;;;26.89;21.55
31044;BME280;17710;52.520;13.352;2023-05-12T08:40:20;101553.13;;;27.00;21.53
31044;BME280;17710;52.520;13.352;2023-05-12T08:42:51;101556.28;;;27.24;21.28
31044;BME280;17710;52.520;13.352;2023-05-12T08:45:20;101557.31;;;27.23;21.33
31044;BME280;17710;52.520;13.352;2023-05-12T08:47:48;101553.56;;;27.05;20.57
31044;BME280;17710;52.520;13.352;2023-05-12T08:50:16;101553.47;;;27.35;20.77
31044;BME280;17710;52.520;13.352;2023-05-12T08:52:44;101564.72;;;27.21;20.68
31044;BME280;17710;52.520;13.352;2023-05-12T08:55:11;101557.16;;;27.15;20.37
31044;BME280;17710;52.520;13.352;2023-05-12T08:57:39;101557.53;;;26.91;19.86
31044;BME280;17710;52.520;13.352;2023-05-12T09:00:11;101560.13;;;26.93;20.36
31044;BME280;17710;52.520;13.352;2023-05-12T09:02:38;101553.22;;;26.70;19.93
31044;BME280;17710;52.520;13.352;2023-05-12T09:05:05;101549.94;;;26.76;20.02
31044;BME280;17710;52.520;13.352;2023-05-12T09:07:32;101554.88;;;27.01;19.86
31044;BME280;17710;52.520;13.352;2023-05-12T09:10:02;101551.09;;;26.83;19.50
31044;BME280;17710;52.520;13.352;2023-05-12T09:12:32;101560.25;;;26.42;20.26
31044;BME280;17710;52.520;13.352;2023-05-12T09:15:03;101553.59;;;26.55;19.73
31044;BME280;17710;52.520;13.352;2023-05-12T09:17:32;101550.31;;;26.62;20.06
31044;BME280;17710;52.520;13.352;2023-05-12T09:19:58;101549.16;;;26.45;20.36
31044;BME280;17710;52.520;13.352;2023-05-12T09:22:29;101549.47;;;26.51;19.78
31044;BME280;17710;52.520;13.352;2023-05-12T09:24:55;101539.19;;;25.94;19.04
31044;BME280;17710;52.520;13.352;2023-05-12T09:27:26;101550.19;;;25.72;19.86
31044;BME280;17710;52.520;13.352;2023-05-12T09:29:53;101554.41;;;25.86;20.04
31044;BME280;17710;52.520;13.352;2023-05-12T09:32:29;101529.66;;;26.00;20.08
31044;BME280;17710;52.520;13.352;2023-05-12T09:35:00;101545.72;;;26.22;20.41
31044;BME280;17710;52.520;13.352;2023-05-12T09:37:31;101543.47;;;26.57;19.47
31044;BME280;17710;52.520;13.352;2023-05-12T09:39:58;101542.50;;;26.68;19.83
31044;BME280;17710;52.520;13.352;2023-05-12T09:42:28;101541.94;;;26.65;19.19
31044;BME280;17710;52.520;13.352;2023-05-12T09:44:57;101535.69;;;26.83;19.00
31044;BME280;17710;52.520;13.352;2023-05-12T09:47:26;101544.66;;;26.65;19.06
31044;BME280;17710;52.520;13.352;2023-05-12T09:49:53;101542.75;;;26.65;18.95
31044;BME280;17710;52.520;13.352;2023-05-12T09:52:21;101542.31;;;26.50;18.83
31044;BME280;17710;52.520;13.352;2023-05-12T09:54:48;101540.22;;;26.64;19.00
31044;BME280;17710;52.520;13.352;2023-05-12T09:57:19;101538.50;;;26.72;18.90
31044;BME280;17710;52.520;13.352;2023-05-12T09:59:48;101541.53;;;26.88;18.82
31044;BME280;17710;52.520;13.352;2023-05-12T10:02:15;101536.16;;;26.98;18.66
31044;BME280;17710;52.520;13.352;2023-05-12T10:04:46;101531.59;;;26.89;18.71
31044;BME280;17710;52.520;13.352;2023-05-12T10:07:15;101549.91;;;26.66;18.78
31044;BME280;17710;52.520;13.352;2023-05-12T10:09:43;101540.13;;;26.35;18.92
31044;BME280;17710;52.520;13.352;2023-05-12T10:12:10;101540.41;;;26.32;18.90
31044;BME280;17710;52.520;13.352;2023-05-12T10:14:37;101537.44;;;26.44;19.52
31044;BME280;17710;52.520;13.352;2023-05-12T10:17:06;101532.63;;;26.57;19.31
31044;BME280;17710;52.520;13.352;2023-05-12T10:19:34;101535.56;;;26.35;19.50
31044;BME280;17710;52.520;13.352;2023-05-12T10:22:01;101529.59;;;26.41;19.43
31044;BME280;17710;52.520;13.352;2023-05-12T10:24:28;101536.47;;;26.55;19.49
31044;BME280;17710;52.520;13.352;2023-05-12T10:26:54;101535.19;;;26.49;19.63
31044;BME280;17710;52.520;13.352;2023-05-12T10:29:22;101526.31;;;26.47;19.72
31044;BME280;17710;52.520;13.352;2023-05-12T10:31:53;101526.06;;;26.50;19.68
31044;BME280;17710;52.520;13.352;2023-05-12T10:34:21;101529.63;;;26.51;19.87
31044;BME280;17710;52.520;13.352;2023-05-12T10:36:50;101525.38;;;26.68;19.86
31044;BME280;17710;52.520;13.352;2023-05-12T10:39:18;101513.97;;;26.74;19.50
31044;BME280;17710;52.520;13.352;2023-05-12T10:41:44;101525.47;;;26.96;19.59
31044;BME280;17710;52.520;13.352;2023-05-12T10:44:11;101515.47;;;26.97;19.66
31044;BME280;17710;52.520;13.352;2023-05-12T10:46:38;101518.03;;;26.89;19.56
31044;BME280;17710;52.520;13.352;2023-05-12T10:49:06;101528.31;;;27.14;19.43
31044;BME280;17710;52.520;13.352;2023-05-12T10:51:47;101530.09;;;26.85;19.70
31044;BME280;17710;52.520;13.352;2023-05-12T10:54:18;101523.78;;;26.55;19.87
31044;BME280;17710;52.520;13.352;2023-05-12T10:56:46;101516.78;;;26.53;20.10
31044;BME280;17710;52.520;13.352;2023-05-12T10:59:14;101516.47;;;26.46;20.10
31044;BME280;17710;52.520;13.352;2023-05-12T11:01:54;101525.16;;;26.40;20.29
31044;BME280;17710;52.520;13.352;2023-05-12T11:04:20;101508.25;;;26.57;20.25
31044;BME280;17710;52.520;13.352;2023-05-12T11:06:57;101509.09;;;26.68;20.17
31044;BME280;17710;52.520;13.352;2023-05-12T11:09:24;101513.09;;;26.73;20.24
31044;BME280;17710;52.520;13.352;2023-05-12T11:11:52;101503.13;;;26.64;20.25
31044;BME280;17710;52.520;13.352;2023-05-12T11:14:25;101508.38;;;26.56;20.45
31044;BME280;17710;52.520;13.352;2023-05-12T11:16:53;101513.25;;;26.72;20.44
31044;BME280;17710;52.520;13.352;2023-05-12T11:19:20;101508.03;;;26.89;20.06
31044;BME280;17710;52.520;13.352;2023-05-12T11:21:47;101500.28;;;26.85;20.05
31044;BME280;17710;52.520;13.352;2023-05-12T11:24:15;101510.53;;;26.72;20.28
31044;BME280;17710;52.520;13.352;2023-05-12T11:26:43;101506.03;;;27.01;20.20
31044;BME280;17710;52.520;13.352;2023-05-12T11:29:12;101511.97;;;26.76;20.32
31044;BME280;17710;52.520;13.352;2023-05-12T11:31:47;101520.03;;;26.96;20.39
31044;BME280;17710;52.520;13.352;2023-05-12T11:34:14;101504.47;;;27.27;20.12
31044;BME280;17710;52.520;13.352;2023-05-12T11:36:41;101504.47;;;27.27;19.67
31044;BME280;17710;52.520;13.352;2023-05-12T11:39:12;101505.75;;;27.14;19.70
31044;BME280;17710;52.520;13.352;2023-05-12T11:41:49;101503.03;;;27.43;19.10
31044;BME280;17710;52.520;13.352;2023-05-12T11:44:28;101512.63;;;27.08;19.27
31044;BME280;17710;52.520;13.352;2023-05-12T11:47:10;101516.59;;;27.14;19.52
31044;BME280;17710;52.520;13.352;2023-05-12T11:49:45;101531.75;;;27.16;19.51
31044;BME280;17710;52.520;13.352;2023-05-12T11:52:23;101521.31;;;27.21;19.46
31044;BME280;17710;52.520;13.352;2023-05-12T11:54:55;101515.59;;;27.24;19.36
31044;BME280;17710;52.520;13.352;2023-05-12T11:57:32;101515.16;;;27.38;19.17
31044;BME280;17710;52.520;13.352;2023-05-12T12:00:07;101516.31;;;27.26;19.40
31044;BME280;17710;52.520;13.352;2023-05-12T12:02:37;101517.19;;;27.17;19.84
31044;BME280;17710;52.520;13.352;2023-05-12T12:05:15;101524.03;;;27.41;19.93
31044;BME280;17710;52.520;13.352;2023-05-12T12:07:43;101521.31;;;27.60;19.73
31044;BME280;17710;52.520;13.352;2023-05-12T12:10:10;101512.78;;;27.92;19.35
31044;BME280;17710;52.520;13.352;2023-05-12T12:12:38;101513.06;;;27.98;19.18
31044;BME280;17710;52.520;13.352;2023-05-12T12:15:05;101511.34;;;27.97;19.47
31044;BME280;17710;52.520;13.352;2023-05-12T12:17:32;101511.28;;;28.17;19.34
31044;BME280;17710;52.520;13.352;2023-05-12T12:19:58;101514.16;;;28.05;19.22
31044;BME280;17710;52.520;13.352;2023-05-12T12:22:25;101513.72;;;28.10;19.10
31044;BME280;17710;52.520;13.352;2023-05-12T12:24:51;101526.16;;;28.12;19.08
31044;BME280;17710;52.520;13.352;2023-05-12T12:27:17;101519.41;;;27.89;18.87
31044;BME280;17710;52.520;13.352;2023-05-12T12:29:45;101518.72;;;27.68;19.16
31044;BME280;17710;52.520;13.352;2023-05-12T12:32:12;101512.78;;;28.01;19.42
31044;BME280;17710;52.520;13.352;2023-05-12T12:34:38;101513.63;;;28.02;19.31
31044;BME280;17710;52.520;13.352;2023-05-12T12:37:05;101516.34;;;28.02;18.67
31044;BME280;17710;52.520;13.352;2023-05-12T12:39:31;101512.59;;;28.03;18.48
31044;BME280;17710;52.520;13.352;2023-05-12T12:41:58;101510.84;;;28.11;18.67